createdAt,value
2023-05-08T00:00:58.041Z,11.55
2023-05-08T00:03:45.438Z,12.85
2023-05-08T00:06:32.757Z,13.60
2023-05-08T00:09:21.406Z,13.38
2023-05-08T00:12:08.913Z,12.90
2023-05-08T00:14:56.220Z,12.50
2023-05-08T00:17:43.435Z,10.63
2023-05-08T00:20:30.753Z,9.95
2023-05-08T00:23:17.902Z,10.55
2023-05-08T00:26:05.234Z,9.77
2023-05-08T00:28:52.498Z,9.98
2023-05-08T00:31:39.884Z,9.63
2023-05-08T00:34:27.104Z,9.13
2023-05-08T00:37:14.329Z,9.32
2023-05-08T00:40:01.649Z,9.80
2023-05-08T00:42:48.847Z,10.13
2023-05-08T00:45:37.991Z,10.70
2023-05-08T00:48:27.951Z,10.65
2023-05-08T00:51:16.343Z,10.48
2023-05-08T00:54:03.924Z,9.98
2023-05-08T00:56:53.171Z,9.88
2023-05-08T00:59:41.856Z,9.45
2023-05-08T01:02:31.763Z,10.32
2023-05-08T01:05:19.208Z,10.07
2023-05-08T01:08:06.658Z,10.30
2023-05-08T01:11:27.845Z,9.88
2023-05-08T01:14:19.499Z,9.77
2023-05-08T01:17:11.774Z,9.73
2023-05-08T01:20:20.695Z,9.80
2023-05-08T01:23:16.522Z,8.57
2023-05-08T01:26:15.897Z,8.52
2023-05-08T01:29:27.821Z,8.75
2023-05-08T01:32:20.970Z,7.78
2023-05-08T01:35:17.203Z,7.75
2023-05-08T01:38:14.010Z,8.05
2023-05-08T01:41:10.614Z,8.70
2023-05-08T01:44:18.186Z,9.88
2023-05-08T01:47:11.659Z,9.68
2023-05-08T01:50:22.346Z,10.95
2023-05-08T01:53:23.087Z,10.20
2023-05-08T01:56:17.243Z,11.10
2023-05-08T01:59:06.821Z,11.40
2023-05-08T02:01:57.234Z,12.05
2023-05-08T02:04:45.556Z,11.52
2023-05-08T02:07:35.259Z,14.38
2023-05-08T02:10:25.345Z,13.48
2023-05-08T02:13:14.628Z,14.65
2023-05-08T02:16:03.256Z,18.45
2023-05-08T02:18:54.029Z,19.20
2023-05-08T02:21:41.861Z,16.27
2023-05-08T02:24:32.264Z,23.20
2023-05-08T02:27:22.241Z,23.15
2023-05-08T02:30:11.742Z,19.85
2023-05-08T02:33:01.096Z,20.80
2023-05-08T02:35:50.882Z,21.63
2023-05-08T02:38:39.830Z,21.55
2023-05-08T02:41:31.123Z,24.45
2023-05-08T02:44:18.974Z,27.75
2023-05-08T02:47:18.045Z,29.17
2023-05-08T02:50:15.006Z,31.85
2023-05-08T02:53:09.402Z,33.25
2023-05-08T02:56:02.411Z,36.67
2023-05-08T02:58:57.984Z,38.83
2023-05-08T03:02:00.066Z,36.83
2023-05-08T03:04:53.561Z,37.20
2023-05-08T03:07:42.724Z,39.95
2023-05-08T03:10:33.829Z,41.75
2023-05-08T03:13:21.562Z,42.13
2023-05-08T03:16:15.200Z,42.47
2023-05-08T03:19:07.574Z,40.80
2023-05-08T03:21:56.036Z,40.55
2023-05-08T03:24:44.298Z,40.25
2023-05-08T03:27:33.213Z,42.03
2023-05-08T03:30:21.229Z,40.53
2023-05-08T03:33:09.442Z,40.95
2023-05-08T03:35:57.719Z,39.42
2023-05-08T03:38:45.450Z,40.30
2023-05-08T03:41:32.683Z,42.00
2023-05-08T03:44:20.631Z,40.20
2023-05-08T03:47:08.789Z,42.42
2023-05-08T03:49:57.442Z,41.58
2023-05-08T03:52:44.781Z,41.53
2023-05-08T03:55:32.401Z,40.53
2023-05-08T03:58:29.304Z,40.85
2023-05-08T04:01:42.545Z,40.97
2023-05-08T04:04:41.332Z,43.08
2023-05-08T04:07:37.719Z,42.45
2023-05-08T04:10:32.646Z,40.97
2023-05-08T04:13:26.028Z,43.05
2023-05-08T04:16:21.721Z,44.20
2023-05-08T04:19:18.389Z,42.78
2023-05-08T04:22:08.121Z,44.10
2023-05-08T04:24:58.633Z,44.95
2023-05-08T04:27:46.656Z,43.25
2023-05-08T04:30:33.964Z,44.47
2023-05-08T04:33:21.785Z,42.15
2023-05-08T04:36:13.383Z,43.67
2023-05-08T04:39:00.779Z,42.00
2023-05-08T04:41:48.918Z,44.35
2023-05-08T04:44:36.212Z,46.08
2023-05-08T04:47:24.271Z,46.75
2023-05-08T04:50:12.267Z,46.42
2023-05-08T04:52:59.450Z,46.30
2023-05-08T04:55:46.678Z,45.45
2023-05-08T04:58:33.904Z,46.20
2023-05-08T05:01:21.160Z,42.40
2023-05-08T05:04:08.603Z,39.85
2023-05-08T05:06:56.013Z,42.65
2023-05-08T05:09:43.319Z,39.92
2023-05-08T05:12:30.523Z,39.47
2023-05-08T05:15:17.770Z,40.75
2023-05-08T05:18:05.044Z,40.88
2023-05-08T05:20:52.429Z,39.65
2023-05-08T05:23:39.649Z,40.65
2023-05-08T05:26:26.869Z,38.80
2023-05-08T05:29:14.137Z,39.95
2023-05-08T05:32:02.322Z,37.70
2023-05-08T05:34:49.672Z,39.63
2023-05-08T05:37:37.345Z,39.78
2023-05-08T05:40:24.561Z,40.97
2023-05-08T05:43:11.931Z,39.63
2023-05-08T05:46:06.520Z,41.35
2023-05-08T05:48:54.028Z,41.53
2023-05-08T05:51:41.741Z,40.88
2023-05-08T05:54:28.909Z,41.53
2023-05-08T05:57:16.202Z,40.70
2023-05-08T06:00:04.903Z,42.13
2023-05-08T06:02:52.165Z,42.13
2023-05-08T06:05:40.490Z,41.25
2023-05-08T06:08:27.766Z,39.85
2023-05-08T06:11:14.916Z,39.03
2023-05-08T06:14:02.175Z,40.15
2023-05-08T06:16:49.537Z,41.17
2023-05-08T06:19:36.915Z,42.08
2023-05-08T06:22:24.580Z,43.22
2023-05-08T06:25:12.117Z,43.88
2023-05-08T06:27:59.794Z,42.90
2023-05-08T06:30:47.186Z,45.13
2023-05-08T06:33:34.423Z,42.28
2023-05-08T06:36:21.626Z,44.33
2023-05-08T06:39:09.140Z,44.58
2023-05-08T06:41:56.353Z,43.90
2023-05-08T06:44:43.525Z,46.20
2023-05-08T06:47:30.878Z,46.45
2023-05-08T06:50:18.124Z,46.22
2023-05-08T06:53:05.566Z,44.00
2023-05-08T06:55:52.922Z,45.45
2023-05-08T06:58:40.099Z,44.95
2023-05-08T07:01:27.723Z,44.35
2023-05-08T07:04:15.080Z,43.75
2023-05-08T07:07:02.505Z,43.67
2023-05-08T07:09:49.700Z,42.63
2023-05-08T07:12:36.926Z,42.85
2023-05-08T07:15:26.580Z,40.95
2023-05-08T07:18:14.238Z,42.75
2023-05-08T07:21:01.433Z,42.13
2023-05-08T07:23:51.642Z,42.33
2023-05-08T07:26:38.930Z,42.67
2023-05-08T07:29:27.128Z,43.67
2023-05-08T07:32:15.326Z,42.85
2023-05-08T07:35:03.807Z,42.75
2023-05-08T07:37:51.103Z,41.40
2023-05-08T07:40:38.263Z,43.70
2023-05-08T07:43:25.511Z,41.53
2023-05-08T07:46:19.106Z,40.38
2023-05-08T07:49:06.425Z,42.67
2023-05-08T07:51:53.622Z,42.33
2023-05-08T07:54:40.776Z,43.58
2023-05-08T07:57:27.998Z,40.72
2023-05-08T08:00:16.609Z,41.55
2023-05-08T08:03:04.228Z,42.05
2023-05-08T08:05:51.492Z,40.88
2023-05-08T08:08:39.183Z,42.38
2023-05-08T08:11:26.410Z,41.05
2023-05-08T08:14:13.536Z,40.42
2023-05-08T08:17:00.786Z,39.90
2023-05-08T08:19:48.094Z,40.95
2023-05-08T08:22:37.407Z,39.33
2023-05-08T08:25:24.670Z,39.72
2023-05-08T08:28:11.934Z,40.97
2023-05-08T08:30:59.140Z,41.30
2023-05-08T08:33:46.757Z,42.70
2023-05-08T08:36:34.512Z,42.22
2023-05-08T08:39:23.060Z,44.40
2023-05-08T08:42:10.252Z,40.58
2023-05-08T08:44:57.564Z,43.50
2023-05-08T08:47:46.286Z,42.63
2023-05-08T08:50:33.933Z,45.60
2023-05-08T08:53:30.926Z,41.80
2023-05-08T08:56:21.395Z,44.53
2023-05-08T08:59:09.236Z,47.05
2023-05-08T09:02:06.587Z,44.58
2023-05-08T09:04:54.159Z,45.35
2023-05-08T09:07:43.853Z,46.05
2023-05-08T09:10:31.138Z,45.10
2023-05-08T09:13:19.782Z,43.17
2023-05-08T09:16:07.629Z,44.47
2023-05-08T09:18:54.849Z,44.15
2023-05-08T09:21:42.747Z,41.17
2023-05-08T09:24:58.828Z,40.05
2023-05-08T09:27:46.199Z,42.42
2023-05-08T09:30:50.544Z,40.90
2023-05-08T09:33:44.805Z,42.78
2023-05-08T09:36:32.112Z,41.05
2023-05-08T09:39:26.377Z,40.83
2023-05-08T09:42:14.213Z,41.20
2023-05-08T09:45:01.469Z,40.28
2023-05-08T09:47:48.884Z,37.65
2023-05-08T09:50:36.221Z,33.70
2023-05-08T09:53:31.827Z,32.97
2023-05-08T09:56:38.929Z,33.25
2023-05-08T09:59:33.982Z,35.00
2023-05-08T10:02:21.621Z,31.98
2023-05-08T10:05:30.200Z,29.17
2023-05-08T10:08:19.676Z,26.77
2023-05-08T10:11:17.811Z,25.77
2023-05-08T10:14:05.248Z,23.20
2023-05-08T10:16:54.445Z,24.38
2023-05-08T10:19:46.096Z,23.25
2023-05-08T10:22:37.496Z,21.25
2023-05-08T10:25:25.779Z,21.02
2023-05-08T10:28:24.456Z,20.15
2023-05-08T10:31:14.971Z,20.52
2023-05-08T10:34:04.621Z,19.33
2023-05-08T10:36:54.192Z,19.85
2023-05-08T10:39:43.136Z,20.08
2023-05-08T10:42:31.220Z,19.67
2023-05-08T10:45:18.984Z,20.42
2023-05-08T10:48:13.862Z,19.85
2023-05-08T10:51:13.761Z,18.05
2023-05-08T10:54:19.393Z,17.52
2023-05-08T10:57:12.938Z,16.30
2023-05-08T11:00:00.233Z,16.60
2023-05-08T11:02:49.110Z,16.40
2023-05-08T11:05:49.155Z,16.05
2023-05-08T11:08:46.765Z,15.63
2023-05-08T11:11:39.301Z,16.45
2023-05-08T11:14:28.530Z,15.60
2023-05-08T11:17:24.348Z,17.23
2023-05-08T11:20:11.991Z,16.90
2023-05-08T11:23:22.902Z,18.58
2023-05-08T11:26:14.979Z,17.80
2023-05-08T11:29:02.188Z,17.42
2023-05-08T11:31:50.968Z,17.42
2023-05-08T11:34:44.275Z,16.40
2023-05-08T11:37:34.143Z,16.50
2023-05-08T11:41:00.886Z,15.70
2023-05-08T11:44:09.663Z,15.48
2023-05-08T11:46:58.061Z,17.02
2023-05-08T11:49:45.300Z,16.38
2023-05-08T11:52:34.693Z,15.48
2023-05-08T11:55:22.401Z,15.90
2023-05-08T11:58:13.497Z,13.80
2023-05-08T12:01:00.866Z,14.50
2023-05-08T12:03:48.109Z,13.48
2023-05-08T12:06:38.051Z,12.43
2023-05-08T12:09:25.387Z,11.98
2023-05-08T12:12:12.567Z,12.13
2023-05-08T12:14:59.702Z,12.07
2023-05-08T12:17:47.198Z,11.30
2023-05-08T12:20:34.429Z,10.88
2023-05-08T12:23:21.710Z,10.60
2023-05-08T12:26:08.962Z,11.15
2023-05-08T12:28:57.037Z,10.88
2023-05-08T12:31:44.397Z,12.45
2023-05-08T12:34:31.739Z,12.80
2023-05-08T12:37:27.860Z,14.10
2023-05-08T12:40:31.913Z,13.73
2023-05-08T12:43:19.224Z,13.77
2023-05-08T12:46:11.410Z,14.27
2023-05-08T12:49:04.476Z,14.10
2023-05-08T12:51:52.860Z,13.63
2023-05-08T12:54:46.184Z,13.48
2023-05-08T12:57:36.857Z,12.48
2023-05-08T13:00:24.114Z,12.52
2023-05-08T13:03:27.765Z,10.98
2023-05-08T13:06:22.178Z,10.85
2023-05-08T13:09:09.396Z,10.52
2023-05-08T13:11:56.816Z,13.38
2023-05-08T13:14:44.009Z,12.27
2023-05-08T13:17:31.239Z,13.50
2023-05-08T13:20:18.420Z,12.32
2023-05-08T13:23:06.294Z,14.18
2023-05-08T13:25:53.588Z,14.02
2023-05-08T13:28:40.786Z,14.52
2023-05-08T13:31:28.060Z,15.60
2023-05-08T13:34:15.255Z,15.32
2023-05-08T13:37:02.575Z,17.05
2023-05-08T13:39:49.824Z,16.67
2023-05-08T13:42:37.440Z,17.80
2023-05-08T13:45:24.657Z,15.82
2023-05-08T13:48:11.947Z,16.67
2023-05-08T13:50:59.154Z,17.35
2023-05-08T13:53:46.482Z,17.17
2023-05-08T13:56:33.719Z,17.48
2023-05-08T13:59:21.067Z,17.50
2023-05-08T14:02:08.441Z,17.98
2023-05-08T14:04:55.729Z,16.33
2023-05-08T14:07:43.893Z,16.85
2023-05-08T14:10:31.200Z,18.13
2023-05-08T14:13:18.417Z,16.90
2023-05-08T14:16:08.207Z,18.17
2023-05-08T14:18:55.964Z,18.77
2023-05-08T14:21:45.034Z,19.42
2023-05-08T14:24:32.302Z,20.02
2023-05-08T14:27:19.567Z,20.77
2023-05-08T14:30:07.479Z,20.67
2023-05-08T14:32:54.721Z,20.92
2023-05-08T14:35:43.306Z,19.65
2023-05-08T14:38:30.819Z,21.08
2023-05-08T14:41:18.052Z,20.30
2023-05-08T14:44:05.382Z,19.90
2023-05-08T14:46:52.542Z,21.33
2023-05-08T14:49:39.736Z,19.33
2023-05-08T14:52:27.017Z,19.80
2023-05-08T14:58:27.381Z,20.30
2023-05-08T15:01:14.616Z,18.65
2023-05-08T15:04:02.036Z,18.92
2023-05-08T15:06:49.392Z,19.92
2023-05-08T15:09:36.789Z,19.42
2023-05-08T15:12:26.117Z,18.67
2023-05-08T15:15:13.547Z,18.35
2023-05-08T15:18:00.927Z,18.83
2023-05-08T15:20:48.181Z,17.23
2023-05-08T15:23:35.464Z,17.08
2023-05-08T15:26:23.279Z,16.50
2023-05-08T15:29:10.537Z,16.05
2023-05-08T15:31:57.833Z,15.45
2023-05-08T15:34:45.027Z,13.80
2023-05-08T15:37:32.265Z,14.73
2023-05-08T15:40:19.589Z,14.10
2023-05-08T15:43:07.023Z,13.98
2023-05-08T15:45:54.335Z,13.40
2023-05-08T15:48:41.489Z,13.77
2023-05-08T15:51:29.012Z,14.20
2023-05-08T15:54:16.202Z,13.02
2023-05-08T15:57:03.471Z,12.98
2023-05-08T15:59:50.796Z,12.63
2023-05-08T16:02:38.043Z,12.40
2023-05-08T16:05:25.870Z,12.68
2023-05-08T16:08:13.856Z,12.32
2023-05-08T16:11:01.799Z,11.55
2023-05-08T16:13:49.008Z,11.27
2023-05-08T16:16:37.853Z,12.13
2023-05-08T16:19:25.248Z,11.32
2023-05-08T16:22:12.490Z,11.35
2023-05-08T16:24:59.656Z,9.73
2023-05-08T16:27:46.925Z,10.48
2023-05-08T16:30:34.167Z,8.77
2023-05-08T16:33:21.358Z,8.30
2023-05-08T16:36:08.923Z,9.05
2023-05-08T16:38:56.100Z,9.02
2023-05-08T16:41:43.486Z,8.73
2023-05-08T16:44:30.780Z,10.18
2023-05-08T16:47:17.950Z,9.27
2023-05-08T16:50:05.772Z,9.00
2023-05-08T16:52:52.953Z,9.93
2023-05-08T16:55:40.188Z,9.63
2023-05-08T16:58:27.881Z,9.20
2023-05-08T17:01:15.080Z,8.73
2023-05-08T17:04:02.246Z,8.88
2023-05-08T17:06:49.423Z,8.73
2023-05-08T17:09:36.651Z,9.57
2023-05-08T17:12:24.794Z,9.10
2023-05-08T17:15:12.229Z,9.50
2023-05-08T17:17:59.667Z,9.45
2023-05-08T17:20:46.926Z,9.07
2023-05-08T17:23:34.116Z,10.02
2023-05-08T17:26:22.966Z,9.88
2023-05-08T17:29:10.348Z,9.18
2023-05-08T17:31:57.563Z,8.57
2023-05-08T17:34:46.176Z,9.20
2023-05-08T17:37:33.364Z,9.65
2023-05-08T17:40:20.556Z,8.93
2023-05-08T17:43:10.999Z,9.27
2023-05-08T17:45:58.234Z,9.90
2023-05-08T17:48:45.437Z,9.77
2023-05-08T17:51:32.863Z,10.52
2023-05-08T17:54:19.960Z,9.57
2023-05-08T17:57:07.187Z,9.88
2023-05-08T17:59:54.432Z,9.90
2023-05-08T18:02:41.787Z,15.68
2023-05-08T18:05:30.503Z,16.52
2023-05-08T18:08:17.708Z,11.73
2023-05-08T18:11:04.940Z,8.48
2023-05-08T18:13:55.635Z,8.75
2023-05-08T18:16:42.831Z,8.00
2023-05-08T18:19:30.070Z,8.65
2023-05-08T18:22:22.296Z,8.38
2023-05-08T18:25:09.822Z,8.80
2023-05-08T18:27:58.868Z,8.43
2023-05-08T18:30:46.150Z,7.88
2023-05-08T18:33:33.410Z,8.60
2023-05-08T18:36:20.638Z,8.60
2023-05-08T18:39:07.830Z,8.85
2023-05-08T18:41:55.050Z,8.15
2023-05-08T18:44:42.388Z,8.43
2023-05-08T18:47:29.747Z,8.43
2023-05-08T18:50:17.512Z,8.18
2023-05-08T18:53:04.804Z,8.07
2023-05-08T18:55:52.946Z,8.23
2023-05-08T18:58:40.395Z,8.10
2023-05-08T19:01:27.620Z,7.88
2023-05-08T19:04:14.907Z,8.75
2023-05-08T19:07:02.155Z,8.68
2023-05-08T19:09:49.381Z,8.05
2023-05-08T19:12:36.593Z,8.18
2023-05-08T19:15:23.821Z,7.88
2023-05-08T19:18:11.080Z,8.98
2023-05-08T19:20:58.403Z,8.65
2023-05-08T19:23:45.775Z,7.85
2023-05-08T19:26:33.126Z,9.00
2023-05-08T19:29:20.521Z,8.55
2023-05-08T19:32:07.984Z,9.30
2023-05-08T19:34:57.401Z,8.85
2023-05-08T19:37:45.146Z,9.05
2023-05-08T19:40:33.126Z,9.27
2023-05-08T19:43:26.839Z,9.88
2023-05-08T19:46:14.286Z,9.60
2023-05-08T19:49:01.743Z,9.45
2023-05-08T19:51:49.520Z,9.80
2023-05-08T19:54:36.785Z,9.30
2023-05-08T19:57:24.062Z,9.95
2023-05-08T20:00:12.398Z,9.98
2023-05-08T20:02:59.953Z,9.80
2023-05-08T20:05:47.278Z,8.98
2023-05-08T20:08:34.567Z,9.55
2023-05-08T20:11:22.123Z,9.18
2023-05-08T20:14:09.327Z,9.90
2023-05-08T20:16:56.561Z,8.60
2023-05-08T20:19:44.014Z,8.63
2023-05-08T20:22:31.404Z,9.07
2023-05-08T20:25:18.948Z,8.98
2023-05-08T20:28:06.236Z,9.57
2023-05-08T20:30:53.694Z,9.40
2023-05-08T20:33:41.053Z,9.07
2023-05-08T20:36:28.362Z,9.07
2023-05-08T20:39:15.783Z,9.70
2023-05-08T20:42:03.051Z,10.05
2023-05-08T20:44:50.383Z,10.73
2023-05-08T20:47:37.731Z,10.63
2023-05-08T20:50:25.092Z,10.98
2023-05-08T20:53:12.347Z,11.48
2023-05-08T20:56:03.972Z,11.52
2023-05-08T20:58:51.247Z,12.85
2023-05-08T21:04:25.990Z,13.27
2023-05-08T21:07:13.268Z,12.20
2023-05-08T21:10:00.588Z,13.30
2023-05-08T21:12:47.753Z,12.82
2023-05-08T21:15:35.130Z,14.07
2023-05-08T21:18:22.385Z,13.60
2023-05-08T21:21:20.088Z,13.70
2023-05-08T21:24:07.343Z,13.90
2023-05-08T21:26:54.649Z,14.88
2023-05-08T21:29:41.867Z,13.13
2023-05-08T21:32:29.089Z,14.30
2023-05-08T21:35:16.599Z,13.68
2023-05-08T21:38:05.740Z,13.50
2023-05-08T21:40:53.744Z,12.60
2023-05-08T21:43:41.146Z,13.30
2023-05-08T21:46:28.469Z,12.70
2023-05-08T21:49:15.742Z,12.73
2023-05-08T21:52:02.985Z,12.65
2023-05-08T21:54:50.529Z,12.20
2023-05-08T21:57:38.380Z,12.38
2023-05-08T22:00:27.067Z,11.95
2023-05-08T22:03:14.641Z,12.05
2023-05-08T22:06:01.995Z,11.60
2023-05-08T22:08:49.138Z,10.60
2023-05-08T22:11:36.303Z,10.55
2023-05-08T22:14:23.575Z,10.75
2023-05-08T22:17:10.858Z,10.35
2023-05-08T22:19:58.089Z,9.60
2023-05-08T22:22:45.891Z,8.63
2023-05-08T22:25:33.099Z,7.82
2023-05-08T22:28:20.235Z,7.88
2023-05-08T22:31:07.610Z,7.90
2023-05-08T22:33:54.819Z,7.20
2023-05-08T22:36:42.099Z,6.95
2023-05-08T22:39:29.258Z,7.03
2023-05-08T22:42:16.765Z,6.93
2023-05-08T22:45:04.527Z,7.38
2023-05-08T22:47:51.879Z,6.20
2023-05-08T22:50:39.140Z,6.53
2023-05-08T22:53:26.334Z,6.75
2023-05-08T22:56:13.505Z,6.22
2023-05-08T22:59:00.733Z,6.13
2023-05-08T23:01:47.904Z,6.25
2023-05-08T23:04:35.594Z,6.25
2023-05-08T23:07:22.792Z,7.07
2023-05-08T23:10:10.555Z,6.63
2023-05-08T23:12:57.787Z,6.13
2023-05-08T23:15:45.043Z,6.22
2023-05-08T23:18:34.076Z,6.65
2023-05-08T23:21:21.407Z,6.15
2023-05-08T23:24:08.690Z,6.40
2023-05-08T23:26:55.852Z,6.13
2023-05-08T23:29:43.073Z,6.20
2023-05-08T23:32:30.272Z,6.47
2023-05-08T23:35:17.652Z,6.82
2023-05-08T23:38:04.844Z,6.60
2023-05-08T23:40:52.320Z,5.80
2023-05-08T23:43:39.687Z,6.10
2023-05-08T23:46:26.877Z,6.18
2023-05-08T23:49:14.127Z,6.28
2023-05-08T23:52:01.323Z,6.38
2023-05-08T23:54:48.756Z,5.97
2023-05-08T23:57:36.105Z,6.00
